createdAt,value
2022-09-28T00:00:51.607Z,9.09
2022-09-28T00:03:18.035Z,9.03
2022-09-28T00:05:44.456Z,8.97
2022-09-28T00:08:10.961Z,9.00
2022-09-28T00:10:37.576Z,8.94
2022-09-28T00:13:04.400Z,8.89
2022-09-28T00:15:30.870Z,8.79
2022-09-28T00:17:57.364Z,8.89
2022-09-28T00:20:23.840Z,8.80
2022-09-28T00:22:50.286Z,8.87
2022-09-28T00:25:17.109Z,8.93
2022-09-28T00:27:43.700Z,8.95
2022-09-28T00:30:10.404Z,8.96
2022-09-28T00:32:36.894Z,8.94
2022-09-28T00:35:03.402Z,8.96
2022-09-28T00:37:29.909Z,8.90
2022-09-28T00:39:56.417Z,8.81
2022-09-28T00:42:25.449Z,8.79
2022-09-28T00:44:55.527Z,8.75
2022-09-28T00:47:40.140Z,8.81
2022-09-28T00:50:32.054Z,8.70
2022-09-28T00:53:08.924Z,8.69
2022-09-28T00:55:44.284Z,8.67
2022-09-28T00:58:17.527Z,8.64
2022-09-28T01:00:44.119Z,8.57
2022-09-28T01:03:11.246Z,8.56
2022-09-28T01:05:42.295Z,8.64
2022-09-28T01:08:10.585Z,8.63
2022-09-28T01:10:39.316Z,8.64
2022-09-28T01:13:05.925Z,8.66
2022-09-28T01:15:38.949Z,8.85
2022-09-28T01:18:49.631Z,8.94
2022-09-28T01:21:22.182Z,8.86
2022-09-28T01:24:10.929Z,8.90
2022-09-28T01:26:40.481Z,8.89
2022-09-28T01:29:41.050Z,8.83
2022-09-28T01:32:16.657Z,8.65
2022-09-28T01:34:56.080Z,8.72
2022-09-28T01:37:31.674Z,8.82
2022-09-28T01:40:00.125Z,8.88
2022-09-28T01:42:31.482Z,8.89
2022-09-28T01:45:06.002Z,8.91
2022-09-28T01:47:37.557Z,8.90
2022-09-28T01:50:14.300Z,8.84
2022-09-28T01:53:04.532Z,8.80
2022-09-28T01:55:54.829Z,8.80
2022-09-28T01:58:36.538Z,8.85
2022-09-28T02:01:09.968Z,9.04
2022-09-28T02:03:48.734Z,8.82
2022-09-28T02:06:22.246Z,8.82
2022-09-28T02:09:00.107Z,8.84
2022-09-28T02:11:43.785Z,8.94
2022-09-28T02:14:13.350Z,8.85
2022-09-28T02:16:43.039Z,8.83
2022-09-28T02:19:13.089Z,8.97
2022-09-28T02:21:59.488Z,8.91
2022-09-28T02:24:46.427Z,8.90
2022-09-28T02:27:27.272Z,8.80
2022-09-28T02:29:53.788Z,8.85
2022-09-28T02:32:20.346Z,8.91
2022-09-28T02:34:49.658Z,8.98
2022-09-28T02:37:16.230Z,8.92
2022-09-28T02:39:42.740Z,8.80
2022-09-28T02:42:21.422Z,8.64
2022-09-28T02:44:53.943Z,8.55
2022-09-28T02:47:28.081Z,8.52
2022-09-28T02:50:15.230Z,8.53
2022-09-28T02:53:14.266Z,8.76
2022-09-28T02:56:14.974Z,8.82
2022-09-28T02:58:54.885Z,8.88
2022-09-28T03:01:31.230Z,8.83
2022-09-28T03:04:00.422Z,8.68
2022-09-28T03:06:32.454Z,8.70
2022-09-28T03:09:27.860Z,8.77
2022-09-28T03:12:03.548Z,8.76
2022-09-28T03:14:30.209Z,8.83
2022-09-28T03:16:57.653Z,8.78
2022-09-28T03:19:29.305Z,8.77
2022-09-28T03:21:55.891Z,8.68
2022-09-28T03:24:22.400Z,8.62
2022-09-28T03:26:49.608Z,8.64
2022-09-28T03:29:16.397Z,8.70
2022-09-28T03:31:45.893Z,8.77
2022-09-28T03:34:12.528Z,8.89
2022-09-28T03:36:39.100Z,8.82
2022-09-28T03:39:05.625Z,8.82
2022-09-28T03:41:32.143Z,8.80
2022-09-28T03:43:58.640Z,8.79
2022-09-28T03:46:27.529Z,8.87
2022-09-28T03:48:59.199Z,8.85
2022-09-28T03:51:26.198Z,8.81
2022-09-28T03:53:53.427Z,8.85
2022-09-28T03:56:20.628Z,8.83
2022-09-28T03:58:47.180Z,8.83
2022-09-28T04:01:17.548Z,8.89
2022-09-28T04:03:46.180Z,8.84
2022-09-28T04:06:14.020Z,8.89
2022-09-28T04:08:40.751Z,8.89
2022-09-28T04:11:09.264Z,8.86
2022-09-28T04:13:37.061Z,9.06
2022-09-28T04:16:07.152Z,9.00
2022-09-28T04:18:35.206Z,9.05
2022-09-28T04:21:11.702Z,9.15
2022-09-28T04:23:42.768Z,9.11
2022-09-28T04:26:19.219Z,9.09
2022-09-28T04:29:06.723Z,9.05
2022-09-28T04:31:39.999Z,9.00
2022-09-28T04:34:06.559Z,9.00
2022-09-28T04:36:33.359Z,8.88
2022-09-28T04:39:00.203Z,8.93
2022-09-28T04:41:28.451Z,8.95
2022-09-28T04:43:55.792Z,8.98
2022-09-28T04:46:24.847Z,8.99
2022-09-28T04:49:14.272Z,8.98
2022-09-28T04:51:48.273Z,9.10
2022-09-28T04:54:14.740Z,9.13
2022-09-28T04:56:41.804Z,9.00
2022-09-28T04:59:08.414Z,8.94
2022-09-28T05:01:36.934Z,8.93
2022-09-28T05:04:13.132Z,8.95
2022-09-28T05:06:48.573Z,8.90
2022-09-28T05:09:15.177Z,8.88
2022-09-28T05:11:41.956Z,8.90
2022-09-28T05:14:14.075Z,8.93
2022-09-28T05:16:40.559Z,8.93
2022-09-28T05:19:22.023Z,8.96
2022-09-28T05:21:50.305Z,8.89
2022-09-28T05:24:16.792Z,8.88
2022-09-28T05:26:48.783Z,8.86
2022-09-28T05:29:15.517Z,8.81
2022-09-28T05:32:01.629Z,8.76
2022-09-28T05:34:55.649Z,8.66
2022-09-28T05:37:26.533Z,8.76
2022-09-28T05:39:53.016Z,8.75
2022-09-28T05:42:19.528Z,8.73
2022-09-28T05:44:45.992Z,8.60
2022-09-28T05:47:12.662Z,8.59
2022-09-28T05:49:39.319Z,8.60
2022-09-28T05:52:05.797Z,8.54
2022-09-28T05:54:35.597Z,8.59
2022-09-28T05:57:02.075Z,8.71
2022-09-28T05:59:30.166Z,8.77
2022-09-28T06:01:56.660Z,8.73
2022-09-28T06:04:23.199Z,8.62
2022-09-28T06:06:50.759Z,8.63
2022-09-28T06:09:17.653Z,8.71
2022-09-28T06:11:58.334Z,8.77
2022-09-28T06:14:44.693Z,8.67
2022-09-28T06:17:12.042Z,8.64
2022-09-28T06:19:39.211Z,8.69
2022-09-28T06:22:24.680Z,8.76
2022-09-28T06:24:58.976Z,8.80
2022-09-28T06:27:25.633Z,8.75
2022-09-28T06:29:52.743Z,8.73
2022-09-28T06:32:19.660Z,8.90
2022-09-28T06:34:50.746Z,8.88
2022-09-28T06:37:20.761Z,8.90
2022-09-28T06:39:48.319Z,8.94
2022-09-28T06:42:17.672Z,8.94
2022-09-28T06:45:25.451Z,8.95
2022-09-28T06:48:10.023Z,8.95
2022-09-28T06:50:41.058Z,8.95
2022-09-28T06:53:21.939Z,8.95
2022-09-28T06:55:50.918Z,8.96
2022-09-28T06:58:19.936Z,8.91
2022-09-28T07:00:48.306Z,8.94
2022-09-28T07:03:17.491Z,8.94
2022-09-28T07:06:04.748Z,8.88
2022-09-28T07:08:37.260Z,8.88
2022-09-28T07:11:42.025Z,8.88
2022-09-28T07:14:41.470Z,8.85
2022-09-28T07:17:14.373Z,8.91
2022-09-28T07:19:42.282Z,8.84
2022-09-28T07:22:08.792Z,8.95
2022-09-28T07:24:35.275Z,9.03
2022-09-28T07:27:37.010Z,9.17
2022-09-28T07:30:33.223Z,9.22
2022-09-28T07:33:32.582Z,9.30
2022-09-28T07:36:17.801Z,9.38
2022-09-28T07:38:44.575Z,9.43
2022-09-28T07:41:16.753Z,9.54
2022-09-28T07:43:46.642Z,9.61
2022-09-28T07:46:13.271Z,9.58
2022-09-28T07:48:51.674Z,9.58
2022-09-28T07:51:24.018Z,9.70
2022-09-28T07:54:10.758Z,9.72
2022-09-28T07:56:43.677Z,9.66
2022-09-28T07:59:18.928Z,9.69
2022-09-28T08:02:03.274Z,9.73
2022-09-28T08:04:30.289Z,9.71
2022-09-28T08:06:56.820Z,9.79
2022-09-28T08:09:23.345Z,9.78
2022-09-28T08:12:08.510Z,9.84
2022-09-28T08:14:46.650Z,9.88
2022-09-28T08:17:28.364Z,9.85
2022-09-28T08:20:16.689Z,9.84
2022-09-28T08:22:43.195Z,9.79
2022-09-28T08:25:10.669Z,9.75
2022-09-28T08:27:37.117Z,9.73
2022-09-28T08:30:05.315Z,9.76
2022-09-28T08:32:55.088Z,9.77
2022-09-28T08:35:43.245Z,9.84
2022-09-28T08:38:27.479Z,9.96
2022-09-28T08:41:12.976Z,10.08
2022-09-28T08:44:23.852Z,10.16
2022-09-28T08:47:39.242Z,10.25
2022-09-28T08:50:29.042Z,10.43
2022-09-28T08:53:56.792Z,10.41
2022-09-28T08:56:41.159Z,10.55
2022-09-28T08:59:20.870Z,10.56
2022-09-28T09:01:59.626Z,10.50
2022-09-28T09:04:27.145Z,10.49
2022-09-28T09:07:31.813Z,10.50
2022-09-28T09:10:18.988Z,10.66
2022-09-28T09:13:03.497Z,10.72
2022-09-28T09:15:55.131Z,10.70
2022-09-28T09:18:52.581Z,10.79
2022-09-28T09:22:01.443Z,10.79
2022-09-28T09:24:36.852Z,10.80
2022-09-28T09:27:26.747Z,10.85
2022-09-28T09:30:02.990Z,10.93
2022-09-28T09:32:40.038Z,11.04
2022-09-28T09:35:51.327Z,11.18
2022-09-28T09:39:03.440Z,11.05
2022-09-28T09:42:02.336Z,11.11
2022-09-28T09:45:07.498Z,11.12
2022-09-28T09:48:03.498Z,11.04
2022-09-28T09:50:43.097Z,11.05
2022-09-28T09:53:29.319Z,11.17
2022-09-28T09:56:03.912Z,11.20
2022-09-28T09:58:44.607Z,11.17
2022-09-28T10:01:20.105Z,11.23
2022-09-28T10:04:29.901Z,11.22
2022-09-28T10:07:04.738Z,11.28
2022-09-28T10:09:39.297Z,11.41
2022-09-28T10:12:25.648Z,11.57
2022-09-28T10:14:55.197Z,11.74
2022-09-28T10:17:27.223Z,11.92
2022-09-28T10:20:14.773Z,11.90
2022-09-28T10:22:56.650Z,11.81
2022-09-28T10:25:24.276Z,11.75
2022-09-28T10:27:52.507Z,11.76
2022-09-28T10:30:25.257Z,11.83
2022-09-28T10:32:55.127Z,11.89
2022-09-28T10:35:26.872Z,11.99
2022-09-28T10:38:01.632Z,11.98
2022-09-28T10:40:59.578Z,11.99
2022-09-28T10:44:06.364Z,11.96
2022-09-28T10:46:42.652Z,12.18
2022-09-28T10:49:17.621Z,12.32
2022-09-28T10:51:54.553Z,12.31
2022-09-28T10:54:31.909Z,12.32
2022-09-28T10:57:00.402Z,12.32
2022-09-28T10:59:41.465Z,12.36
2022-09-28T11:02:27.270Z,12.33
2022-09-28T11:05:01.655Z,12.35
2022-09-28T11:07:44.263Z,12.37
2022-09-28T11:10:38.655Z,12.54
2022-09-28T11:13:12.347Z,12.45
2022-09-28T11:15:44.171Z,12.41
2022-09-28T11:18:34.479Z,12.47
2022-09-28T11:21:27.747Z,12.46
2022-09-28T11:24:07.342Z,12.41
2022-09-28T11:26:41.625Z,12.37
2022-09-28T11:29:33.667Z,12.51
2022-09-28T11:32:16.038Z,12.76
2022-09-28T11:35:22.876Z,12.78
2022-09-28T11:37:56.100Z,12.81
2022-09-28T11:41:01.032Z,12.87
2022-09-28T11:43:45.939Z,12.96
2022-09-28T11:46:24.259Z,12.95
2022-09-28T11:49:09.460Z,12.72
2022-09-28T11:51:41.327Z,12.81
2022-09-28T11:54:28.775Z,12.72
2022-09-28T11:56:59.012Z,12.70
2022-09-28T11:59:42.282Z,12.72
2022-09-28T12:02:23.142Z,12.67
2022-09-28T12:05:24.957Z,12.63
2022-09-28T12:07:56.856Z,12.69
2022-09-28T12:11:15.558Z,12.66
2022-09-28T12:14:04.458Z,12.74
2022-09-28T12:17:04.895Z,12.83
2022-09-28T12:19:45.188Z,12.96
2022-09-28T12:22:19.427Z,13.11
2022-09-28T12:24:49.349Z,13.17
2022-09-28T12:27:30.388Z,13.17
2022-09-28T12:30:13.008Z,13.17
2022-09-28T12:32:52.562Z,13.20
2022-09-28T12:35:24.519Z,13.26
2022-09-28T12:38:08.593Z,13.21
2022-09-28T12:40:52.674Z,13.18
2022-09-28T12:43:28.030Z,13.16
2022-09-28T12:46:13.194Z,13.15
2022-09-28T12:48:52.970Z,13.14
2022-09-28T12:51:43.050Z,13.08
2022-09-28T12:54:46.844Z,13.12
2022-09-28T12:57:56.500Z,13.21
2022-09-28T13:00:25.549Z,13.36
2022-09-28T13:03:18.436Z,13.52
2022-09-28T13:06:21.983Z,13.52
2022-09-28T13:08:48.453Z,13.58
2022-09-28T13:11:24.953Z,13.66
2022-09-28T13:14:25.007Z,13.64
2022-09-28T13:17:00.540Z,13.59
2022-09-28T13:19:47.729Z,13.61
2022-09-28T13:22:26.832Z,13.60
2022-09-28T13:24:56.957Z,13.52
2022-09-28T13:27:34.170Z,13.51
2022-09-28T13:30:04.074Z,13.48
2022-09-28T13:32:33.007Z,13.50
2022-09-28T13:35:02.098Z,13.42
2022-09-28T13:37:29.621Z,13.43
2022-09-28T13:39:58.985Z,13.48
2022-09-28T13:42:51.014Z,13.52
2022-09-28T13:45:17.386Z,13.51
2022-09-28T13:47:55.330Z,13.56
2022-09-28T13:50:46.508Z,13.61
2022-09-28T13:53:46.465Z,13.63
2022-09-28T13:56:25.473Z,13.71
2022-09-28T13:58:58.431Z,13.73
2022-09-28T14:01:37.488Z,13.66
2022-09-28T14:04:19.481Z,13.57
2022-09-28T14:07:08.187Z,13.46
2022-09-28T14:09:42.541Z,13.49
2022-09-28T14:12:46.844Z,13.47
2022-09-28T14:15:35.005Z,13.44
2022-09-28T14:18:13.867Z,13.36
2022-09-28T14:20:58.161Z,13.33
2022-09-28T14:23:30.464Z,13.37
2022-09-28T14:26:13.327Z,13.34
2022-09-28T14:28:45.845Z,13.32
2022-09-28T14:31:26.420Z,13.32
2022-09-28T14:34:01.991Z,13.36
2022-09-28T14:37:00.241Z,13.43
2022-09-28T14:39:49.692Z,13.51
2022-09-28T14:42:23.212Z,13.56
2022-09-28T14:45:06.117Z,13.62
2022-09-28T14:47:42.825Z,13.66
2022-09-28T14:50:27.564Z,13.59
2022-09-28T14:52:56.844Z,13.59
2022-09-28T14:55:30.984Z,13.58
2022-09-28T14:57:59.134Z,13.62
2022-09-28T15:00:30.249Z,13.65
2022-09-28T15:03:02.642Z,13.77
2022-09-28T15:05:55.315Z,13.79
2022-09-28T15:08:22.744Z,13.81
2022-09-28T15:10:50.400Z,13.77
2022-09-28T15:13:16.870Z,13.71
2022-09-28T15:15:50.352Z,13.68
2022-09-28T15:19:15.647Z,13.66
2022-09-28T15:21:43.523Z,13.53
2022-09-28T15:24:33.780Z,13.50
2022-09-28T15:27:01.942Z,13.51
2022-09-28T15:29:31.327Z,13.38
2022-09-28T15:31:58.776Z,13.24
2022-09-28T15:34:51.646Z,13.01
2022-09-28T15:37:32.909Z,12.86
2022-09-28T15:40:00.939Z,12.57
2022-09-28T15:42:27.469Z,12.45
2022-09-28T15:45:13.952Z,12.28
2022-09-28T15:47:43.503Z,12.13
2022-09-28T15:50:22.014Z,11.84
2022-09-28T15:53:01.321Z,11.42
2022-09-28T15:55:32.821Z,11.17
2022-09-28T15:58:07.471Z,10.98
2022-09-28T16:00:34.518Z,10.90
2022-09-28T16:03:08.733Z,10.63
2022-09-28T16:05:56.873Z,10.32
2022-09-28T16:08:38.938Z,10.35
2022-09-28T16:11:14.567Z,10.32
2022-09-28T16:14:01.701Z,10.31
2022-09-28T16:16:36.407Z,10.36
2022-09-28T16:19:03.539Z,10.25
2022-09-28T16:21:42.591Z,10.23
2022-09-28T16:24:19.975Z,10.12
2022-09-28T16:26:47.221Z,10.14
2022-09-28T16:29:39.910Z,10.18
2022-09-28T16:32:25.027Z,10.16
2022-09-28T16:35:13.092Z,10.15
2022-09-28T16:37:43.621Z,10.21
2022-09-28T16:40:11.050Z,10.12
2022-09-28T16:42:40.075Z,10.06
2022-09-28T16:45:08.151Z,10.08
2022-09-28T16:47:34.789Z,10.05
2022-09-28T16:50:04.380Z,9.92
2022-09-28T16:52:49.668Z,9.97
2022-09-28T16:58:04.763Z,9.96
2022-09-28T17:00:31.784Z,10.13
2022-09-28T17:02:58.509Z,9.92
2022-09-28T17:05:25.505Z,9.97
2022-09-28T17:08:03.531Z,9.97
2022-09-28T17:11:12.630Z,9.94
2022-09-28T17:13:34.783Z,9.94
2022-09-28T17:16:06.077Z,9.88
2022-09-28T17:18:32.608Z,9.90
2022-09-28T17:21:03.413Z,10.08
2022-09-28T17:23:30.344Z,10.06
2022-09-28T17:25:58.889Z,10.24
2022-09-28T17:28:32.838Z,10.38
2022-09-28T17:30:59.767Z,10.39
2022-09-28T17:33:26.410Z,10.33
2022-09-28T17:36:01.557Z,10.25
2022-09-28T17:38:28.457Z,10.17
2022-09-28T17:40:55.056Z,10.17
2022-09-28T17:43:22.386Z,10.24
2022-09-28T17:45:50.331Z,10.38
2022-09-28T17:48:20.693Z,10.20
2022-09-28T17:50:47.436Z,10.24
2022-09-28T17:53:14.405Z,10.03
2022-09-28T17:55:42.898Z,10.09
2022-09-28T17:58:21.209Z,10.05
2022-09-28T18:00:50.331Z,10.11
2022-09-28T18:03:20.372Z,10.14
2022-09-28T18:05:49.738Z,9.97
2022-09-28T18:08:20.912Z,9.95
2022-09-28T18:10:47.582Z,10.12
2022-09-28T18:13:14.968Z,10.24
2022-09-28T18:15:42.132Z,10.38
2022-09-28T18:18:09.768Z,10.35
2022-09-28T18:20:37.349Z,10.43
2022-09-28T18:23:04.337Z,10.54
2022-09-28T18:25:31.896Z,10.48
2022-09-28T18:28:00.108Z,10.51
2022-09-28T18:30:27.634Z,10.58
2022-09-28T18:32:54.223Z,10.68
2022-09-28T18:35:23.241Z,10.66
2022-09-28T18:37:50.505Z,10.42
2022-09-28T18:40:17.391Z,10.46
2022-09-28T18:42:43.956Z,10.55
2022-09-28T18:45:11.260Z,10.58
2022-09-28T18:47:39.304Z,10.58
2022-09-28T18:50:06.775Z,10.64
2022-09-28T18:52:37.005Z,10.72
2022-09-28T18:55:05.201Z,10.77
2022-09-28T18:57:33.454Z,10.83
2022-09-28T19:00:00.882Z,10.88
2022-09-28T19:02:27.851Z,10.88
2022-09-28T19:04:54.442Z,10.88
2022-09-28T19:07:21.233Z,10.83
2022-09-28T19:09:47.757Z,10.82
2022-09-28T19:12:14.769Z,10.86
2022-09-28T19:14:41.334Z,10.77
2022-09-28T19:17:07.800Z,10.50
2022-09-28T19:19:34.295Z,10.36
2022-09-28T19:22:00.915Z,10.41
2022-09-28T19:24:27.453Z,10.40
2022-09-28T19:26:53.987Z,10.45
2022-09-28T19:29:21.126Z,10.56
2022-09-28T19:31:47.584Z,10.59
2022-09-28T19:34:14.428Z,10.64
2022-09-28T19:36:41.400Z,10.66
2022-09-28T19:39:07.908Z,10.69
2022-09-28T19:41:44.309Z,10.70
2022-09-28T19:44:15.362Z,10.71
2022-09-28T19:46:42.814Z,10.73
2022-09-28T19:49:14.411Z,10.74
2022-09-28T19:51:56.559Z,10.73
2022-09-28T19:54:36.340Z,10.76
2022-09-28T19:57:07.573Z,10.66
2022-09-28T19:59:35.614Z,10.69
2022-09-28T20:02:03.085Z,10.69
2022-09-28T20:04:29.971Z,10.69
2022-09-28T20:06:56.770Z,10.70
2022-09-28T20:09:23.286Z,10.71
2022-09-28T20:11:51.739Z,10.72
2022-09-28T20:14:23.370Z,10.71
2022-09-28T20:16:52.377Z,10.73
2022-09-28T20:19:21.048Z,10.72
2022-09-28T20:21:48.441Z,10.70
2022-09-28T20:24:17.077Z,10.67
2022-09-28T20:26:44.647Z,10.65
2022-09-28T20:29:11.728Z,10.57
2022-09-28T20:31:38.646Z,10.55
2022-09-28T20:34:06.173Z,10.60
2022-09-28T20:36:33.100Z,10.59
2022-09-28T20:39:04.053Z,10.60
2022-09-28T20:41:34.689Z,10.62
2022-09-28T20:44:05.291Z,10.60
2022-09-28T20:46:33.767Z,10.57
2022-09-28T20:49:00.582Z,10.56
2022-09-28T20:51:27.218Z,10.59
2022-09-28T20:53:55.917Z,10.57
2022-09-28T20:56:26.328Z,10.52
2022-09-28T20:58:53.837Z,10.48
2022-09-28T21:01:23.558Z,10.49
2022-09-28T21:03:51.750Z,10.50
2022-09-28T21:06:19.671Z,10.50
2022-09-28T21:08:46.632Z,10.48
2022-09-28T21:11:14.219Z,10.44
2022-09-28T21:13:42.783Z,10.41
2022-09-28T21:16:15.071Z,10.41
2022-09-28T21:18:42.376Z,10.44
2022-09-28T21:21:13.265Z,10.41
2022-09-28T21:23:40.304Z,10.40
2022-09-28T21:26:08.986Z,10.38
2022-09-28T21:28:37.213Z,10.37
2022-09-28T21:31:10.416Z,10.32
2022-09-28T21:33:37.215Z,10.28
2022-09-28T21:36:06.297Z,10.27
2022-09-28T21:38:33.248Z,10.30
2022-09-28T21:41:00.482Z,10.33
2022-09-28T21:43:33.518Z,10.30
2022-09-28T21:46:00.264Z,10.24
2022-09-28T21:48:28.390Z,10.18
2022-09-28T21:51:03.256Z,10.13
2022-09-28T21:53:35.635Z,10.13
2022-09-28T21:56:03.929Z,10.14
2022-09-28T21:58:33.640Z,10.08
2022-09-28T22:01:06.874Z,10.03
2022-09-28T22:03:35.331Z,10.02
2022-09-28T22:06:02.955Z,9.92
2022-09-28T22:08:29.654Z,9.89
2022-09-28T22:11:02.335Z,9.91
2022-09-28T22:13:30.342Z,9.91
2022-09-28T22:15:58.682Z,9.85
2022-09-28T22:18:29.698Z,9.85
2022-09-28T22:21:10.231Z,9.87
2022-09-28T22:23:37.955Z,9.89
2022-09-28T22:26:12.552Z,9.92
2022-09-28T22:28:44.422Z,9.91
2022-09-28T22:31:11.006Z,9.96
2022-09-28T22:33:37.594Z,10.01
2022-09-28T22:36:04.175Z,10.07
2022-09-28T22:38:32.260Z,10.03
2022-09-28T22:40:58.816Z,9.96
2022-09-28T22:43:26.401Z,9.95
2022-09-28T22:46:11.080Z,9.96
2022-09-28T22:48:38.413Z,9.93
2022-09-28T22:51:06.579Z,9.88
2022-09-28T22:53:34.201Z,9.90
2022-09-28T22:56:01.512Z,9.93
2022-09-28T22:58:28.010Z,9.98
2022-09-28T23:00:56.305Z,10.03
2022-09-28T23:03:23.426Z,10.11
2022-09-28T23:05:56.512Z,10.11
2022-09-28T23:08:24.280Z,10.09
2022-09-28T23:10:51.129Z,10.06
2022-09-28T23:13:17.973Z,10.10
2022-09-28T23:15:53.883Z,10.11
2022-09-28T23:18:20.685Z,10.13
2022-09-28T23:21:01.838Z,10.06
2022-09-28T23:23:29.121Z,10.13
2022-09-28T23:25:56.048Z,10.16
2022-09-28T23:28:24.449Z,10.15
2022-09-28T23:30:51.618Z,10.11
2022-09-28T23:33:19.833Z,10.10
2022-09-28T23:35:47.020Z,10.14
2022-09-28T23:38:16.453Z,10.15
2022-09-28T23:40:44.269Z,10.12
2022-09-28T23:43:11.051Z,10.03
2022-09-28T23:45:37.773Z,10.01
2022-09-28T23:48:04.719Z,10.01
2022-09-28T23:50:31.230Z,10.02
2022-09-28T23:52:57.685Z,10.03
2022-09-28T23:55:24.191Z,10.03
2022-09-28T23:57:50.999Z,10.01
